RYR52NB LEAL-EGNX
Flight info
| Callsign | RYR52NB |
|---|---|
| Flight time | 2h 11m |
| Altitude | 34000 |
| Route | MITOS N608 COMPI Y90 USKAR N863 GIROM DCT AGN DCT SECHE DCT UVELI DCT CNA DCT TUPAR UN861 DIKRO UM184 HEMEL |
| Aircraft | B38M/M-SDE1FGHILORVWXY/HB1 |
Departure
| Time | 2026-05-05 15:53 |
|---|---|
| Airport | Alicante-Elche Miguel Hernández Airport (LEAL) |
Arrival
| Time | 2026-05-05 18:04 |
|---|---|
| Airport | East Midlands Airport (EGNX) |
| Time | Latitude | Longitude | Altitude | Speed | Heading |
|---|---|---|---|---|---|
| 2026-05-05 15:38 | 38.28592 | -0.55787 | 105 ft | 0 kts | 12° |
| 2026-05-05 15:43 | 38.28571 | -0.55793 | 105 ft | 4 kts | 9° |
| 2026-05-05 15:43 | 38.28545 | -0.55793 | 105 ft | 4 kts | 340° |
| 2026-05-05 15:44 | 38.28526 | -0.55775 | 103 ft | 4 kts | 292° |
| 2026-05-05 15:44 | 38.28523 | -0.55764 | 104 ft | 1 kts | 280° |
| 2026-05-05 15:47 | 38.28524 | -0.55766 | 104 ft | 1 kts | 280° |
| 2026-05-05 15:47 | 38.28530 | -0.55809 | 103 ft | 8 kts | 281° |
| 2026-05-05 15:47 | 38.28540 | -0.55879 | 106 ft | 8 kts | 280° |
| 2026-05-05 15:48 | 38.28550 | -0.55950 | 108 ft | 8 kts | 279° |
| 2026-05-05 15:48 | 38.28530 | -0.56011 | 108 ft | 8 kts | 205° |
| 2026-05-05 15:48 | 38.28477 | -0.56027 | 110 ft | 8 kts | 190° |
| 2026-05-05 15:48 | 38.28434 | -0.56069 | 110 ft | 9 kts | 260° |
| 2026-05-05 15:49 | 38.28442 | -0.56154 | 110 ft | 11 kts | 279° |
| 2026-05-05 15:49 | 38.28456 | -0.56256 | 109 ft | 12 kts | 281° |
| 2026-05-05 15:49 | 38.28471 | -0.56357 | 110 ft | 11 kts | 280° |
| 2026-05-05 15:49 | 38.28482 | -0.56444 | 116 ft | 9 kts | 279° |
| 2026-05-05 15:50 | 38.28495 | -0.56530 | 119 ft | 12 kts | 280° |
| 2026-05-05 15:50 | 38.28514 | -0.56668 | 118 ft | 20 kts | 280° |
| 2026-05-05 15:50 | 38.28539 | -0.56846 | 129 ft | 19 kts | 280° |
| 2026-05-05 15:50 | 38.28560 | -0.56999 | 136 ft | 16 kts | 279° |
| 2026-05-05 15:51 | 38.28579 | -0.57131 | 142 ft | 14 kts | 279° |
| 2026-05-05 15:51 | 38.28596 | -0.57259 | 147 ft | 14 kts | 279° |
| 2026-05-05 15:51 | 38.28607 | -0.57378 | 151 ft | 13 kts | 256° |
| 2026-05-05 15:51 | 38.28542 | -0.57431 | 154 ft | 11 kts | 192° |
| 2026-05-05 15:52 | 38.28463 | -0.57438 | 154 ft | 12 kts | 159° |
| 2026-05-05 15:52 | 38.28427 | -0.57317 | 148 ft | 21 kts | 100° |
| 2026-05-05 15:52 | 38.28371 | -0.56917 | 126 ft | 83 kts | 100° |
| 2026-05-05 15:52 | 38.28228 | -0.55890 | 105 ft | 149 kts | 100° |
| 2026-05-05 15:53 | 38.27991 | -0.54451 | 391 ft | 176 kts | 106° |
| 2026-05-05 15:53 | 38.27738 | -0.52922 | 1245 ft | 167 kts | 104° |
| 2026-05-05 15:53 | 38.27519 | -0.51498 | 2022 ft | 169 kts | 104° |
| 2026-05-05 15:53 | 38.27408 | -0.49924 | 2446 ft | 190 kts | 90° |
| 2026-05-05 15:54 | 38.27752 | -0.48184 | 2785 ft | 220 kts | 64° |
| 2026-05-05 15:54 | 38.28646 | -0.46526 | 3433 ft | 231 kts | 57° |
| 2026-05-05 15:54 | 38.29585 | -0.44776 | 4001 ft | 249 kts | 56° |
| 2026-05-05 15:54 | 38.30589 | -0.42877 | 4555 ft | 268 kts | 55° |
| 2026-05-05 15:55 | 38.31648 | -0.40856 | 5222 ft | 280 kts | 54° |
| 2026-05-05 15:55 | 38.32710 | -0.38759 | 6095 ft | 283 kts | 60° |
| 2026-05-05 15:55 | 38.33492 | -0.36417 | 6876 ft | 291 kts | 67° |
| 2026-05-05 15:55 | 38.34232 | -0.33997 | 7699 ft | 295 kts | 66° |
| 2026-05-05 15:56 | 38.34990 | -0.31544 | 8498 ft | 300 kts | 66° |
| 2026-05-05 15:56 | 38.35763 | -0.29054 | 9309 ft | 305 kts | 66° |
| 2026-05-05 15:56 | 38.36589 | -0.26545 | 10083 ft | 309 kts | 65° |
| 2026-05-05 15:56 | 38.37456 | -0.23958 | 10511 ft | 327 kts | 65° |
| 2026-05-05 15:57 | 38.38368 | -0.21217 | 10918 ft | 343 kts | 65° |
| 2026-05-05 15:57 | 38.39318 | -0.18357 | 11447 ft | 355 kts | 65° |
| 2026-05-05 15:57 | 38.40271 | -0.15487 | 12153 ft | 360 kts | 65° |
| 2026-05-05 15:57 | 38.41256 | -0.12513 | 12772 ft | 368 kts | 65° |
| 2026-05-05 15:58 | 38.42261 | -0.09480 | 13475 ft | 374 kts | 65° |
| 2026-05-05 15:58 | 38.43352 | -0.06427 | 14046 ft | 379 kts | 56° |
| 2026-05-05 15:58 | 38.45039 | -0.03885 | 14707 ft | 374 kts | 34° |
| 2026-05-05 15:58 | 38.47269 | -0.02243 | 15291 ft | 367 kts | 12° |
| 2026-05-05 15:59 | 38.49739 | -0.01622 | 15884 ft | 360 kts | 356° |
| 2026-05-05 15:59 | 38.52262 | -0.01479 | 16462 ft | 365 kts | 355° |
| 2026-05-05 15:59 | 38.54809 | -0.01388 | 17096 ft | 368 kts | 354° |
| 2026-05-05 15:59 | 38.57390 | -0.01334 | 17698 ft | 373 kts | 354° |
| 2026-05-05 16:00 | 38.60000 | -0.01298 | 18274 ft | 377 kts | 353° |
| 2026-05-05 16:00 | 38.62599 | -0.01270 | 18791 ft | 380 kts | 353° |
| 2026-05-05 16:00 | 38.65281 | -0.01247 | 19380 ft | 382 kts | 353° |
| 2026-05-05 16:00 | 38.67946 | -0.01227 | 19925 ft | 384 kts | 352° |
| 2026-05-05 16:01 | 38.70599 | -0.01208 | 20475 ft | 387 kts | 352° |
| 2026-05-05 16:01 | 38.73334 | -0.01189 | 21011 ft | 390 kts | 352° |
| 2026-05-05 16:01 | 38.76026 | -0.01171 | 21517 ft | 393 kts | 352° |
| 2026-05-05 16:01 | 38.78803 | -0.01153 | 22055 ft | 395 kts | 352° |
| 2026-05-05 16:02 | 38.81561 | -0.01134 | 22563 ft | 398 kts | 352° |
| 2026-05-05 16:02 | 38.84297 | -0.01116 | 23100 ft | 399 kts | 352° |
| 2026-05-05 16:02 | 38.87085 | -0.01097 | 23588 ft | 402 kts | 352° |
| 2026-05-05 16:02 | 38.89893 | -0.01079 | 24044 ft | 405 kts | 351° |
| 2026-05-05 16:03 | 38.92727 | -0.01061 | 24358 ft | 411 kts | 351° |
| 2026-05-05 16:03 | 38.95600 | -0.01042 | 24752 ft | 414 kts | 351° |
| 2026-05-05 16:03 | 38.98493 | -0.01022 | 25150 ft | 417 kts | 351° |
| 2026-05-05 16:03 | 39.01406 | -0.01003 | 25524 ft | 420 kts | 351° |
| 2026-05-05 16:04 | 39.04342 | -0.00984 | 25914 ft | 423 kts | 351° |
| 2026-05-05 16:04 | 39.07294 | -0.00964 | 26299 ft | 426 kts | 351° |
| 2026-05-05 16:04 | 39.10274 | -0.00944 | 26671 ft | 429 kts | 351° |
| 2026-05-05 16:04 | 39.13274 | -0.00924 | 27086 ft | 432 kts | 351° |
| 2026-05-05 16:05 | 39.16296 | -0.00905 | 27372 ft | 437 kts | 351° |
| 2026-05-05 16:05 | 39.19349 | -0.00884 | 27744 ft | 439 kts | 350° |
| 2026-05-05 16:05 | 39.22416 | -0.00864 | 28110 ft | 442 kts | 350° |
| 2026-05-05 16:05 | 39.25467 | -0.00843 | 28452 ft | 445 kts | 350° |
| 2026-05-05 16:06 | 39.28573 | -0.00822 | 28796 ft | 448 kts | 350° |
| 2026-05-05 16:06 | 39.31698 | -0.00801 | 29142 ft | 451 kts | 350° |
| 2026-05-05 16:06 | 39.34854 | -0.00668 | 29454 ft | 462 kts | 359° |
| 2026-05-05 16:06 | 39.38033 | 0.00345 | 29869 ft | 476 kts | 8° |
| 2026-05-05 16:07 | 39.41226 | 0.01516 | 30066 ft | 479 kts | 7° |
| 2026-05-05 16:07 | 39.44454 | 0.02682 | 30308 ft | 482 kts | 7° |
| 2026-05-05 16:07 | 39.47680 | 0.03868 | 30625 ft | 484 kts | 8° |
| 2026-05-05 16:07 | 39.50928 | 0.05068 | 30899 ft | 486 kts | 8° |
| 2026-05-05 16:08 | 39.54190 | 0.06274 | 31186 ft | 488 kts | 8° |
| 2026-05-05 16:08 | 39.57465 | 0.07487 | 31450 ft | 490 kts | 8° |
| 2026-05-05 16:08 | 39.60746 | 0.08702 | 31782 ft | 492 kts | 8° |
| 2026-05-05 16:08 | 39.64048 | 0.09929 | 32043 ft | 494 kts | 8° |
| 2026-05-05 16:09 | 39.67362 | 0.11160 | 32331 ft | 495 kts | 8° |
| 2026-05-05 16:09 | 39.70638 | 0.12378 | 32611 ft | 497 kts | 8° |
| 2026-05-05 16:09 | 39.73961 | 0.13615 | 32962 ft | 496 kts | 8° |
| 2026-05-05 16:09 | 39.77271 | 0.14849 | 33355 ft | 495 kts | 8° |
| 2026-05-05 16:10 | 39.80580 | 0.16083 | 33777 ft | 494 kts | 8° |
| 2026-05-05 16:10 | 39.83888 | 0.17318 | 33942 ft | 497 kts | 9° |
| 2026-05-05 16:10 | 39.87235 | 0.18568 | 33891 ft | 502 kts | 9° |
| 2026-05-05 16:11 | 39.93964 | 0.21086 | 33899 ft | 503 kts | 9° |
| 2026-05-05 16:12 | 40.07431 | 0.26137 | 33914 ft | 505 kts | 9° |
| 2026-05-05 16:13 | 40.24352 | 0.32509 | 33898 ft | 506 kts | 9° |
| 2026-05-05 16:13 | 40.31090 | 0.35057 | 33899 ft | 509 kts | 10° |
| 2026-05-05 16:14 | 40.44750 | 0.40247 | 33904 ft | 514 kts | 9° |
| 2026-05-05 16:15 | 40.57432 | 0.45086 | 33912 ft | 518 kts | 10° |
| 2026-05-05 16:16 | 40.71282 | 0.50392 | 33903 ft | 518 kts | 10° |
| 2026-05-05 16:17 | 40.81631 | 0.54372 | 33920 ft | 519 kts | 10° |
| 2026-05-05 16:18 | 40.92026 | 0.58382 | 33932 ft | 518 kts | 10° |
| 2026-05-05 16:19 | 41.02443 | 0.62414 | 33934 ft | 522 kts | 10° |
| 2026-05-05 16:19 | 41.12864 | 0.66461 | 33911 ft | 520 kts | 10° |
| 2026-05-05 16:20 | 41.26727 | 0.71865 | 33919 ft | 519 kts | 11° |
| 2026-05-05 16:22 | 41.44004 | 0.78631 | 33902 ft | 519 kts | 11° |
| 2026-05-05 16:23 | 41.57867 | 0.84089 | 33933 ft | 520 kts | 11° |
| 2026-05-05 16:23 | 41.68261 | 0.88196 | 33904 ft | 518 kts | 11° |
| 2026-05-05 16:24 | 41.75178 | 0.90937 | 33905 ft | 518 kts | 11° |
| 2026-05-05 16:25 | 41.85470 | 0.95027 | 33928 ft | 513 kts | 11° |
| 2026-05-05 16:25 | 41.95749 | 0.99126 | 33957 ft | 514 kts | 11° |
| 2026-05-05 16:26 | 42.09416 | 1.04595 | 33921 ft | 511 kts | 12° |
| 2026-05-05 16:27 | 42.16302 | 1.06165 | 33901 ft | 491 kts | 349° |
| 2026-05-05 16:27 | 42.23150 | 1.05584 | 33908 ft | 491 kts | 349° |
| 2026-05-05 16:28 | 42.29909 | 1.04905 | 33934 ft | 489 kts | 349° |
| 2026-05-05 16:28 | 42.36694 | 1.04176 | 33924 ft | 489 kts | 349° |
| 2026-05-05 16:29 | 42.43471 | 1.03443 | 33961 ft | 488 kts | 349° |
| 2026-05-05 16:29 | 42.50226 | 1.02707 | 33927 ft | 486 kts | 349° |
| 2026-05-05 16:30 | 42.56978 | 1.01970 | 33923 ft | 486 kts | 349° |
| 2026-05-05 16:30 | 42.63726 | 1.01233 | 33999 ft | 487 kts | 349° |
| 2026-05-05 16:31 | 42.70410 | 1.00501 | 33960 ft | 485 kts | 349° |
| 2026-05-05 16:31 | 42.77151 | 0.99760 | 33937 ft | 485 kts | 349° |
| 2026-05-05 16:32 | 42.83880 | 0.99021 | 33970 ft | 486 kts | 349° |
| 2026-05-05 16:32 | 42.90613 | 0.98280 | 33958 ft | 484 kts | 349° |
| 2026-05-05 16:33 | 42.97347 | 0.97538 | 33971 ft | 486 kts | 349° |
| 2026-05-05 16:33 | 43.04074 | 0.96794 | 34003 ft | 483 kts | 351° |
| 2026-05-05 16:34 | 43.10734 | 0.96056 | 33970 ft | 478 kts | 350° |
| 2026-05-05 16:34 | 43.17369 | 0.95320 | 33970 ft | 479 kts | 351° |
| 2026-05-05 16:35 | 43.24005 | 0.94581 | 33984 ft | 478 kts | 351° |
| 2026-05-05 16:35 | 43.30635 | 0.93842 | 33963 ft | 478 kts | 351° |
| 2026-05-05 16:36 | 43.37263 | 0.93101 | 33960 ft | 478 kts | 351° |
| 2026-05-05 16:36 | 43.43893 | 0.92359 | 33975 ft | 478 kts | 351° |
| 2026-05-05 16:37 | 43.50517 | 0.91615 | 33963 ft | 477 kts | 351° |
| 2026-05-05 16:37 | 43.57137 | 0.90870 | 33961 ft | 477 kts | 351° |
| 2026-05-05 16:38 | 43.63715 | 0.90129 | 33966 ft | 477 kts | 352° |
| 2026-05-05 16:38 | 43.70342 | 0.89380 | 33950 ft | 477 kts | 352° |
| 2026-05-05 16:39 | 43.76956 | 0.88631 | 33949 ft | 477 kts | 352° |
| 2026-05-05 16:39 | 43.83576 | 0.87880 | 33956 ft | 477 kts | 352° |
| 2026-05-05 16:40 | 43.90027 | 0.86306 | 33932 ft | 464 kts | 332° |
| 2026-05-05 16:40 | 43.95934 | 0.82641 | 33933 ft | 466 kts | 332° |
| 2026-05-05 16:41 | 44.01823 | 0.78891 | 33937 ft | 465 kts | 331° |
| 2026-05-05 16:41 | 44.07699 | 0.75097 | 33953 ft | 466 kts | 332° |
| 2026-05-05 16:42 | 44.13566 | 0.71294 | 33938 ft | 464 kts | 331° |
| 2026-05-05 16:42 | 44.19381 | 0.67518 | 33942 ft | 464 kts | 331° |
| 2026-05-05 16:43 | 44.25239 | 0.63705 | 33941 ft | 465 kts | 332° |
| 2026-05-05 16:43 | 44.31095 | 0.59884 | 33937 ft | 465 kts | 332° |
| 2026-05-05 16:44 | 44.36955 | 0.56054 | 33939 ft | 465 kts | 332° |
| 2026-05-05 16:44 | 44.42816 | 0.52213 | 33945 ft | 465 kts | 332° |
| 2026-05-05 16:45 | 44.48660 | 0.48344 | 33934 ft | 465 kts | 332° |
| 2026-05-05 16:45 | 44.54509 | 0.44464 | 33936 ft | 465 kts | 332° |
| 2026-05-05 16:46 | 44.60348 | 0.40583 | 33938 ft | 465 kts | 332° |
| 2026-05-05 16:46 | 44.66159 | 0.36713 | 33949 ft | 465 kts | 332° |
| 2026-05-05 16:47 | 44.72002 | 0.32811 | 33937 ft | 464 kts | 332° |
| 2026-05-05 16:47 | 44.77838 | 0.28905 | 33937 ft | 464 kts | 332° |
| 2026-05-05 16:48 | 44.83666 | 0.24997 | 33934 ft | 464 kts | 332° |
| 2026-05-05 16:48 | 44.89491 | 0.21081 | 33941 ft | 464 kts | 332° |
| 2026-05-05 16:49 | 44.95318 | 0.17155 | 33930 ft | 464 kts | 332° |
| 2026-05-05 16:49 | 45.01106 | 0.13249 | 33932 ft | 464 kts | 333° |
| 2026-05-05 16:50 | 45.06927 | 0.09307 | 33928 ft | 463 kts | 332° |
| 2026-05-05 16:50 | 45.12744 | 0.05361 | 33925 ft | 463 kts | 332° |
| 2026-05-05 16:51 | 45.18553 | 0.01411 | 33921 ft | 463 kts | 332° |
| 2026-05-05 16:51 | 45.24377 | -0.02557 | 33925 ft | 464 kts | 333° |
| 2026-05-05 16:52 | 45.30205 | -0.06541 | 33922 ft | 466 kts | 333° |
| 2026-05-05 16:52 | 45.36050 | -0.10542 | 33920 ft | 465 kts | 333° |
| 2026-05-05 16:53 | 45.41875 | -0.14541 | 33912 ft | 466 kts | 333° |
| 2026-05-05 16:53 | 45.47683 | -0.18535 | 33907 ft | 466 kts | 333° |
| 2026-05-05 16:54 | 45.53516 | -0.22558 | 33910 ft | 466 kts | 333° |
| 2026-05-05 16:54 | 45.59355 | -0.26592 | 33908 ft | 466 kts | 333° |
| 2026-05-05 16:55 | 45.65209 | -0.30636 | 33910 ft | 467 kts | 334° |
| 2026-05-05 16:55 | 45.71379 | -0.33596 | 33905 ft | 469 kts | 342° |
| 2026-05-05 16:56 | 45.77580 | -0.36402 | 33890 ft | 468 kts | 342° |
| 2026-05-05 16:56 | 45.83791 | -0.39210 | 33895 ft | 467 kts | 342° |
| 2026-05-05 16:57 | 45.90001 | -0.42025 | 33896 ft | 469 kts | 342° |
| 2026-05-05 16:57 | 45.96212 | -0.44847 | 33888 ft | 467 kts | 342° |
| 2026-05-05 16:58 | 46.02420 | -0.47673 | 33895 ft | 468 kts | 342° |
| 2026-05-05 16:58 | 46.08566 | -0.50479 | 33889 ft | 468 kts | 342° |
| 2026-05-05 16:59 | 46.14782 | -0.53322 | 33887 ft | 466 kts | 342° |
| 2026-05-05 16:59 | 46.20971 | -0.56160 | 33886 ft | 468 kts | 342° |
| 2026-05-05 17:00 | 46.27154 | -0.59002 | 33881 ft | 466 kts | 342° |
| 2026-05-05 17:00 | 46.33349 | -0.61857 | 33887 ft | 467 kts | 342° |
| 2026-05-05 17:01 | 46.39521 | -0.64706 | 33879 ft | 466 kts | 342° |
| 2026-05-05 17:01 | 46.45808 | -0.66758 | 33894 ft | 462 kts | 355° |
| 2026-05-05 17:02 | 46.52194 | -0.67829 | 33872 ft | 465 kts | 354° |
| 2026-05-05 17:02 | 46.57581 | -0.68736 | 33860 ft | 464 kts | 354° |
| 2026-05-05 17:03 | 46.63950 | -0.69808 | 33866 ft | 462 kts | 354° |
| 2026-05-05 17:03 | 46.70348 | -0.70889 | 33872 ft | 463 kts | 354° |
| 2026-05-05 17:04 | 46.76748 | -0.71970 | 33871 ft | 463 kts | 354° |
| 2026-05-05 17:04 | 46.83141 | -0.73052 | 33863 ft | 463 kts | 354° |
| 2026-05-05 17:05 | 46.89541 | -0.74140 | 33865 ft | 462 kts | 354° |
| 2026-05-05 17:05 | 46.95931 | -0.75230 | 33871 ft | 462 kts | 354° |
| 2026-05-05 17:06 | 47.02314 | -0.76319 | 33867 ft | 462 kts | 354° |
| 2026-05-05 17:06 | 47.08693 | -0.77409 | 33864 ft | 461 kts | 355° |
| 2026-05-05 17:07 | 47.15078 | -0.78505 | 33873 ft | 461 kts | 354° |
| 2026-05-05 17:07 | 47.21408 | -0.79593 | 33868 ft | 459 kts | 354° |
| 2026-05-05 17:08 | 47.27732 | -0.80683 | 33874 ft | 457 kts | 355° |
| 2026-05-05 17:08 | 47.34067 | -0.81777 | 33873 ft | 457 kts | 355° |
| 2026-05-05 17:09 | 47.40393 | -0.82873 | 33866 ft | 457 kts | 355° |
| 2026-05-05 17:09 | 47.46703 | -0.83968 | 33884 ft | 456 kts | 355° |
| 2026-05-05 17:10 | 47.52995 | -0.85052 | 33881 ft | 455 kts | 357° |
| 2026-05-05 17:10 | 47.59273 | -0.85785 | 33869 ft | 455 kts | 357° |
| 2026-05-05 17:11 | 47.65588 | -0.86552 | 33884 ft | 455 kts | 357° |
| 2026-05-05 17:11 | 47.71912 | -0.87326 | 33880 ft | 455 kts | 357° |
| 2026-05-05 17:12 | 47.78229 | -0.88103 | 33886 ft | 455 kts | 357° |
| 2026-05-05 17:12 | 47.84551 | -0.88881 | 33902 ft | 456 kts | 357° |
| 2026-05-05 17:13 | 47.90841 | -0.89658 | 33883 ft | 455 kts | 357° |
| 2026-05-05 17:13 | 47.97163 | -0.90440 | 33884 ft | 456 kts | 357° |
| 2026-05-05 17:14 | 48.03485 | -0.91224 | 33879 ft | 455 kts | 358° |
| 2026-05-05 17:14 | 48.09806 | -0.92011 | 33895 ft | 456 kts | 357° |
| 2026-05-05 17:15 | 48.16133 | -0.92800 | 33892 ft | 456 kts | 358° |
| 2026-05-05 17:15 | 48.22454 | -0.93591 | 33882 ft | 455 kts | 358° |
| 2026-05-05 17:16 | 48.28763 | -0.94381 | 33902 ft | 455 kts | 358° |
| 2026-05-05 17:16 | 48.35076 | -0.95174 | 33895 ft | 455 kts | 358° |
| 2026-05-05 17:17 | 48.41389 | -0.95969 | 33902 ft | 455 kts | 358° |
| 2026-05-05 17:17 | 48.47653 | -0.96760 | 33903 ft | 455 kts | 358° |
| 2026-05-05 17:18 | 48.53960 | -0.97558 | 33905 ft | 455 kts | 358° |
| 2026-05-05 17:18 | 48.60273 | -0.98359 | 33908 ft | 455 kts | 358° |
| 2026-05-05 17:19 | 48.66585 | -0.99163 | 33889 ft | 454 kts | 358° |
| 2026-05-05 17:19 | 48.72884 | -0.99965 | 33906 ft | 454 kts | 358° |
| 2026-05-05 17:20 | 48.79180 | -1.00770 | 33909 ft | 454 kts | 358° |
| 2026-05-05 17:20 | 48.85482 | -1.01578 | 33905 ft | 454 kts | 358° |
| 2026-05-05 17:21 | 48.91786 | -1.02388 | 33909 ft | 454 kts | 358° |
| 2026-05-05 17:22 | 49.01243 | -1.03607 | 33913 ft | 454 kts | 358° |
| 2026-05-05 17:22 | 49.07547 | -1.04422 | 33910 ft | 454 kts | 358° |
| 2026-05-05 17:23 | 49.13848 | -1.05239 | 33913 ft | 455 kts | 357° |
| 2026-05-05 17:23 | 49.20129 | -1.06055 | 33912 ft | 455 kts | 357° |
| 2026-05-05 17:24 | 49.26445 | -1.06878 | 33923 ft | 455 kts | 357° |
| 2026-05-05 17:24 | 49.32758 | -1.07704 | 33911 ft | 456 kts | 357° |
| 2026-05-05 17:25 | 49.39082 | -1.08531 | 33922 ft | 456 kts | 357° |
| 2026-05-05 17:25 | 49.45403 | -1.09361 | 33925 ft | 456 kts | 357° |
| 2026-05-05 17:26 | 49.51739 | -1.10195 | 33932 ft | 456 kts | 357° |
| 2026-05-05 17:26 | 49.58061 | -1.11004 | 33927 ft | 456 kts | 359° |
| 2026-05-05 17:27 | 49.64356 | -1.10277 | 33918 ft | 454 kts | 7° |
| 2026-05-05 17:27 | 49.70647 | -1.09419 | 33932 ft | 454 kts | 7° |
| 2026-05-05 17:28 | 49.76901 | -1.08563 | 33921 ft | 454 kts | 6° |
| 2026-05-05 17:28 | 49.83189 | -1.07701 | 33924 ft | 453 kts | 6° |
| 2026-05-05 17:29 | 49.89475 | -1.06836 | 33921 ft | 453 kts | 6° |
| 2026-05-05 17:29 | 49.95766 | -1.05969 | 33921 ft | 453 kts | 6° |
| 2026-05-05 17:30 | 50.02051 | -1.05100 | 33920 ft | 452 kts | 6° |
| 2026-05-05 17:30 | 50.08319 | -1.04230 | 33922 ft | 452 kts | 5° |
| 2026-05-05 17:31 | 50.14581 | -1.03358 | 33920 ft | 452 kts | 5° |
| 2026-05-05 17:31 | 50.20854 | -1.02484 | 33917 ft | 451 kts | 5° |
| 2026-05-05 17:32 | 50.27093 | -1.01610 | 33916 ft | 450 kts | 5° |
| 2026-05-05 17:32 | 50.33327 | -1.00736 | 33917 ft | 450 kts | 5° |
| 2026-05-05 17:33 | 50.39526 | -0.99865 | 33921 ft | 450 kts | 5° |
| 2026-05-05 17:33 | 50.45759 | -0.98988 | 33924 ft | 450 kts | 5° |
| 2026-05-05 17:34 | 50.51989 | -0.98107 | 33921 ft | 449 kts | 5° |
| 2026-05-05 17:34 | 50.58254 | -0.97220 | 33923 ft | 449 kts | 5° |
| 2026-05-05 17:35 | 50.64479 | -0.96337 | 33922 ft | 449 kts | 5° |
| 2026-05-05 17:35 | 50.70719 | -0.95449 | 33926 ft | 450 kts | 5° |
| 2026-05-05 17:36 | 50.76920 | -0.94563 | 33929 ft | 450 kts | 5° |
| 2026-05-05 17:36 | 50.83122 | -0.93250 | 33898 ft | 449 kts | 18° |
| 2026-05-05 17:37 | 50.89082 | -0.90167 | 33907 ft | 451 kts | 18° |
| 2026-05-05 17:37 | 50.95076 | -0.87083 | 33929 ft | 452 kts | 18° |
| 2026-05-05 17:38 | 51.01064 | -0.83978 | 33932 ft | 452 kts | 18° |
| 2026-05-05 17:38 | 51.07027 | -0.80878 | 33930 ft | 452 kts | 18° |
| 2026-05-05 17:39 | 51.13031 | -0.77748 | 33937 ft | 452 kts | 18° |
| 2026-05-05 17:39 | 51.18966 | -0.74645 | 33323 ft | 452 kts | 18° |
| 2026-05-05 17:39 | 51.21981 | -0.73065 | 32180 ft | 461 kts | 18° |
| 2026-05-05 17:40 | 51.25042 | -0.71459 | 31372 ft | 463 kts | 18° |
| 2026-05-05 17:40 | 51.28074 | -0.69866 | 30960 ft | 455 kts | 18° |
| 2026-05-05 17:40 | 51.31058 | -0.68297 | 30629 ft | 448 kts | 18° |
| 2026-05-05 17:40 | 51.34020 | -0.66736 | 30179 ft | 448 kts | 18° |
| 2026-05-05 17:41 | 51.36982 | -0.65174 | 29633 ft | 447 kts | 18° |
| 2026-05-05 17:41 | 51.39929 | -0.63618 | 29038 ft | 444 kts | 18° |
| 2026-05-05 17:41 | 51.42767 | -0.62117 | 28480 ft | 440 kts | 18° |
| 2026-05-05 17:41 | 51.45662 | -0.60584 | 27914 ft | 435 kts | 18° |
| 2026-05-05 17:42 | 51.48520 | -0.59068 | 27365 ft | 430 kts | 18° |
| 2026-05-05 17:42 | 51.51334 | -0.57574 | 26824 ft | 426 kts | 18° |
| 2026-05-05 17:42 | 51.54123 | -0.56091 | 26296 ft | 421 kts | 18° |
| 2026-05-05 17:42 | 51.56905 | -0.54609 | 25780 ft | 417 kts | 18° |
| 2026-05-05 17:43 | 51.59645 | -0.53150 | 25276 ft | 414 kts | 17° |
| 2026-05-05 17:43 | 51.62354 | -0.51703 | 24805 ft | 411 kts | 17° |
| 2026-05-05 17:43 | 51.65055 | -0.50259 | 24339 ft | 407 kts | 17° |
| 2026-05-05 17:43 | 51.67731 | -0.48828 | 23883 ft | 403 kts | 17° |
| 2026-05-05 17:44 | 51.70378 | -0.47410 | 23490 ft | 400 kts | 17° |
| 2026-05-05 17:44 | 51.73005 | -0.46000 | 22961 ft | 396 kts | 17° |
| 2026-05-05 17:44 | 51.75610 | -0.44601 | 22443 ft | 392 kts | 17° |
| 2026-05-05 17:44 | 51.77329 | -0.43764 | 22130 ft | 387 kts | 10° |
| 2026-05-05 17:45 | 51.79615 | -0.43378 | 22051 ft | 385 kts | 357° |
| 2026-05-05 17:45 | 51.82249 | -0.43970 | 21828 ft | 382 kts | 342° |
| 2026-05-05 17:45 | 51.84660 | -0.45693 | 21371 ft | 377 kts | 327° |
| 2026-05-05 17:45 | 51.86904 | -0.47850 | 20878 ft | 375 kts | 328° |
| 2026-05-05 17:46 | 51.89165 | -0.49966 | 20375 ft | 374 kts | 328° |
| 2026-05-05 17:46 | 51.91429 | -0.52074 | 19874 ft | 374 kts | 329° |
| 2026-05-05 17:46 | 51.93683 | -0.54172 | 19378 ft | 374 kts | 329° |
| 2026-05-05 17:46 | 51.95943 | -0.56275 | 18891 ft | 373 kts | 329° |
| 2026-05-05 17:47 | 51.98195 | -0.58373 | 18431 ft | 373 kts | 329° |
| 2026-05-05 17:47 | 52.00436 | -0.60463 | 17970 ft | 371 kts | 329° |
| 2026-05-05 17:47 | 52.02670 | -0.62549 | 17486 ft | 370 kts | 329° |
| 2026-05-05 17:47 | 52.04893 | -0.64626 | 17019 ft | 368 kts | 329° |
| 2026-05-05 17:48 | 52.07105 | -0.66695 | 16556 ft | 366 kts | 329° |
| 2026-05-05 17:48 | 52.09302 | -0.68754 | 16098 ft | 364 kts | 328° |
| 2026-05-05 17:48 | 52.11490 | -0.70805 | 15649 ft | 362 kts | 328° |
| 2026-05-05 17:48 | 52.13664 | -0.72846 | 15202 ft | 359 kts | 328° |
| 2026-05-05 17:49 | 52.15824 | -0.74878 | 14760 ft | 357 kts | 328° |
| 2026-05-05 17:49 | 52.17941 | -0.76871 | 14340 ft | 355 kts | 328° |
| 2026-05-05 17:49 | 52.20099 | -0.78904 | 13914 ft | 353 kts | 328° |
| 2026-05-05 17:49 | 52.22190 | -0.80878 | 13466 ft | 351 kts | 328° |
| 2026-05-05 17:50 | 52.24293 | -0.82864 | 12997 ft | 348 kts | 328° |
| 2026-05-05 17:50 | 52.26380 | -0.84837 | 12538 ft | 342 kts | 328° |
| 2026-05-05 17:50 | 52.28413 | -0.86764 | 12088 ft | 331 kts | 328° |
| 2026-05-05 17:50 | 52.30362 | -0.88615 | 11648 ft | 319 kts | 328° |
| 2026-05-05 17:51 | 52.32248 | -0.90407 | 11211 ft | 308 kts | 328° |
| 2026-05-05 17:51 | 52.34074 | -0.92144 | 10787 ft | 299 kts | 328° |
| 2026-05-05 17:51 | 52.35845 | -0.93828 | 10451 ft | 290 kts | 328° |
| 2026-05-05 17:51 | 52.37566 | -0.95466 | 10129 ft | 283 kts | 328° |
| 2026-05-05 17:52 | 52.39255 | -0.97073 | 9809 ft | 278 kts | 328° |
| 2026-05-05 17:52 | 52.40921 | -0.98657 | 9445 ft | 275 kts | 329° |
| 2026-05-05 17:52 | 52.42704 | -0.99757 | 9065 ft | 275 kts | 342° |
| 2026-05-05 17:52 | 52.44409 | -1.01120 | 8711 ft | 274 kts | 319° |
| 2026-05-05 17:53 | 52.45665 | -1.03451 | 8368 ft | 274 kts | 306° |
| 2026-05-05 17:53 | 52.46781 | -1.05982 | 8060 ft | 273 kts | 305° |
| 2026-05-05 17:53 | 52.47875 | -1.08487 | 7976 ft | 268 kts | 306° |
| 2026-05-05 17:53 | 52.48966 | -1.10981 | 7970 ft | 270 kts | 305° |
| 2026-05-05 17:54 | 52.50050 | -1.13462 | 7974 ft | 272 kts | 305° |
| 2026-05-05 17:54 | 52.51152 | -1.15982 | 7993 ft | 271 kts | 305° |
| 2026-05-05 17:54 | 52.52244 | -1.18477 | 7936 ft | 266 kts | 306° |
| 2026-05-05 17:54 | 52.53315 | -1.20957 | 7595 ft | 266 kts | 305° |
| 2026-05-05 17:55 | 52.54394 | -1.23436 | 7181 ft | 268 kts | 308° |
| 2026-05-05 17:55 | 52.55575 | -1.25806 | 6868 ft | 267 kts | 310° |
| 2026-05-05 17:55 | 52.56766 | -1.28150 | 6552 ft | 266 kts | 310° |
| 2026-05-05 17:55 | 52.57944 | -1.30501 | 6194 ft | 266 kts | 310° |
| 2026-05-05 17:56 | 52.59114 | -1.32836 | 6009 ft | 263 kts | 310° |
| 2026-05-05 17:56 | 52.60286 | -1.35176 | 5992 ft | 266 kts | 310° |
| 2026-05-05 17:56 | 52.61467 | -1.37516 | 5936 ft | 264 kts | 310° |
| 2026-05-05 17:56 | 52.62644 | -1.39861 | 5561 ft | 265 kts | 310° |
| 2026-05-05 17:57 | 52.63794 | -1.42204 | 5335 ft | 261 kts | 310° |
| 2026-05-05 17:57 | 52.64919 | -1.44503 | 4993 ft | 261 kts | 310° |
| 2026-05-05 17:57 | 52.66050 | -1.46826 | 4691 ft | 260 kts | 310° |
| 2026-05-05 17:57 | 52.67184 | -1.49142 | 4357 ft | 259 kts | 310° |
| 2026-05-05 17:58 | 52.68307 | -1.51460 | 4069 ft | 257 kts | 310° |
| 2026-05-05 17:58 | 52.69385 | -1.53753 | 3986 ft | 248 kts | 310° |
| 2026-05-05 17:58 | 52.70406 | -1.55949 | 4008 ft | 233 kts | 310° |
| 2026-05-05 17:58 | 52.71345 | -1.57976 | 4036 ft | 213 kts | 310° |
| 2026-05-05 17:59 | 52.72371 | -1.59629 | 4019 ft | 203 kts | 328° |
| 2026-05-05 17:59 | 52.73656 | -1.60475 | 3636 ft | 201 kts | 354° |
| 2026-05-05 17:59 | 52.75031 | -1.60574 | 3363 ft | 196 kts | 360° |
| 2026-05-05 17:59 | 52.76390 | -1.60590 | 3067 ft | 194 kts | 0° |
| 2026-05-05 18:00 | 52.77723 | -1.60613 | 2791 ft | 189 kts | 0° |
| 2026-05-05 18:00 | 52.79022 | -1.60636 | 2540 ft | 184 kts | 2° |
| 2026-05-05 18:00 | 52.80204 | -1.60026 | 2242 ft | 180 kts | 37° |
| 2026-05-05 18:00 | 52.80957 | -1.58407 | 2033 ft | 176 kts | 59° |
| 2026-05-05 18:01 | 52.81522 | -1.56628 | 1996 ft | 175 kts | 60° |
| 2026-05-05 18:01 | 52.82089 | -1.54840 | 1998 ft | 176 kts | 57° |
| 2026-05-05 18:01 | 52.82618 | -1.53044 | 1996 ft | 178 kts | 70° |
| 2026-05-05 18:01 | 52.82799 | -1.51013 | 1981 ft | 178 kts | 84° |
| 2026-05-05 18:02 | 52.82808 | -1.49068 | 1993 ft | 161 kts | 85° |
| 2026-05-05 18:02 | 52.82832 | -1.47245 | 1842 ft | 156 kts | 83° |
| 2026-05-05 18:02 | 52.82866 | -1.45452 | 1693 ft | 154 kts | 83° |
| 2026-05-05 18:02 | 52.82897 | -1.43731 | 1464 ft | 146 kts | 84° |
| 2026-05-05 18:03 | 52.82928 | -1.42068 | 1254 ft | 145 kts | 83° |
| 2026-05-05 18:03 | 52.82958 | -1.40420 | 1058 ft | 142 kts | 82° |
| 2026-05-05 18:03 | 52.82988 | -1.38811 | 827 ft | 140 kts | 81° |
| 2026-05-05 18:03 | 52.83018 | -1.37183 | 670 ft | 144 kts | 85° |
| 2026-05-05 18:04 | 52.83045 | -1.35525 | 454 ft | 144 kts | 84° |
| 2026-05-05 18:04 | 52.83081 | -1.33889 | 307 ft | 136 kts | 85° |
| 2026-05-05 18:04 | 52.83103 | -1.32698 | 303 ft | 70 kts | 88° |
| 2026-05-05 18:04 | 52.83114 | -1.32076 | 308 ft | 45 kts | 88° |
| 2026-05-05 18:05 | 52.83120 | -1.31749 | 314 ft | 22 kts | 89° |
| 2026-05-05 18:05 | 52.83124 | -1.31533 | 311 ft | 15 kts | 89° |
| 2026-05-05 18:05 | 52.83118 | -1.31360 | 310 ft | 15 kts | 120° |
| 2026-05-05 18:05 | 52.83008 | -1.31317 | 304 ft | 19 kts | 185° |
| 2026-05-05 18:06 | 52.82955 | -1.31501 | 303 ft | 21 kts | 268° |
| 2026-05-05 18:06 | 52.82952 | -1.31663 | 303 ft | 22 kts | 269° |
| 2026-05-05 18:06 | 52.82945 | -1.32002 | 303 ft | 23 kts | 267° |
| 2026-05-05 18:06 | 52.82940 | -1.32241 | 303 ft | 15 kts | 270° |
| 2026-05-05 18:07 | 52.82937 | -1.32423 | 304 ft | 17 kts | 266° |
| 2026-05-05 18:07 | 52.82934 | -1.32632 | 303 ft | 19 kts | 267° |
| 2026-05-05 18:07 | 52.82931 | -1.32781 | 304 ft | 8 kts | 268° |
| 2026-05-05 18:07 | 52.82892 | -1.32856 | 303 ft | 11 kts | 188° |
| 2026-05-05 18:08 | 52.82807 | -1.32867 | 303 ft | 11 kts | 188° |
| 2026-05-05 18:08 | 52.82753 | -1.32871 | 306 ft | 5 kts | 177° |
| 2026-05-05 18:08 | 52.82735 | -1.32870 | 305 ft | 0 kts | 178° |
| 2026-05-05 18:08 | 52.82734 | -1.32870 | 305 ft | 0 kts | 178° |
| 2026-05-05 18:09 | 52.82730 | -1.32870 | 306 ft | 0 kts | 179° |